createdAt,value
2018-06-25T00:02:08.036Z,78.26
2018-06-25T00:04:36.211Z,77.87
2018-06-25T00:07:04.446Z,77.75
2018-06-25T00:09:33.295Z,78.07
2018-06-25T00:12:01.487Z,77.99
2018-06-25T00:14:29.655Z,78.30
2018-06-25T00:16:57.752Z,78.87
2018-06-25T00:19:25.967Z,78.53
2018-06-25T00:21:54.137Z,78.47
2018-06-25T00:24:22.664Z,78.42
2018-06-25T00:26:50.870Z,77.83
2018-06-25T00:29:18.973Z,78.93
2018-06-25T00:31:47.235Z,78.09
2018-06-25T00:34:15.365Z,78.53
2018-06-25T00:36:43.471Z,78.51
2018-06-25T00:39:12.068Z,78.31
2018-06-25T00:41:40.329Z,78.36
2018-06-25T00:44:08.424Z,78.68
2018-06-25T00:46:36.638Z,78.95
2018-06-25T00:49:04.747Z,78.54
2018-06-25T00:51:32.923Z,78.14
2018-06-25T00:54:01.173Z,78.68
2018-06-25T00:56:29.986Z,78.50
2018-06-25T00:59:15.138Z,78.51
2018-06-25T01:01:43.232Z,78.74
2018-06-25T01:04:11.349Z,78.24
2018-06-25T01:06:40.022Z,78.20
2018-06-25T01:09:10.165Z,78.05
2018-06-25T01:11:38.225Z,78.93
2018-06-25T01:14:06.495Z,78.28
2018-06-25T01:16:34.623Z,78.12
2018-06-25T01:19:02.694Z,78.42
2018-06-25T01:21:30.770Z,78.35
2018-06-25T01:23:58.829Z,77.98
2018-06-25T01:26:26.895Z,78.47
2018-06-25T01:28:55.106Z,78.65
2018-06-25T01:31:23.333Z,79.09
2018-06-25T01:33:51.632Z,78.37
2018-06-25T01:36:19.724Z,78.52
2018-06-25T01:38:47.933Z,78.00
2018-06-25T01:41:16.050Z,78.70
2018-06-25T01:43:44.092Z,78.67
2018-06-25T01:46:12.213Z,78.80
2018-06-25T01:48:40.272Z,78.88
2018-06-25T01:51:08.413Z,78.48
2018-06-25T01:53:36.527Z,78.04
2018-06-25T01:56:05.720Z,78.58
2018-06-25T01:58:34.014Z,79.45
2018-06-25T02:01:02.222Z,79.27
2018-06-25T02:03:30.401Z,79.22
2018-06-25T02:05:58.546Z,79.38
2018-06-25T02:08:26.782Z,79.09
2018-06-25T02:10:54.990Z,79.51
2018-06-25T02:13:23.066Z,79.39
2018-06-25T02:15:51.617Z,79.79
2018-06-25T02:18:20.035Z,79.26
2018-06-25T02:20:48.145Z,79.48
2018-06-25T02:23:16.401Z,79.36
2018-06-25T02:25:44.645Z,79.33
2018-06-25T02:28:12.711Z,79.58
2018-06-25T02:30:41.510Z,79.41
2018-06-25T02:33:09.685Z,80.12
2018-06-25T02:35:38.392Z,79.69
2018-06-25T02:38:06.572Z,79.60
2018-06-25T02:40:34.871Z,79.34
2018-06-25T02:43:03.026Z,80.11
2018-06-25T02:45:31.160Z,79.54
2018-06-25T02:47:59.313Z,80.19
2018-06-25T02:50:27.427Z,79.97
2018-06-25T02:52:55.512Z,80.69
2018-06-25T02:55:23.766Z,80.62
2018-06-25T02:57:58.620Z,80.66
2018-06-25T03:00:26.703Z,80.44
2018-06-25T03:02:55.576Z,80.73
2018-06-25T03:05:24.302Z,80.44
2018-06-25T03:07:52.477Z,80.11
2018-06-25T03:10:20.685Z,80.10
2018-06-25T03:12:48.865Z,80.93
2018-06-25T03:15:16.982Z,80.60
2018-06-25T03:17:45.195Z,81.11
2018-06-25T03:20:13.290Z,81.05
2018-06-25T03:22:41.558Z,81.19
2018-06-25T03:25:09.763Z,81.62
2018-06-25T03:27:37.905Z,81.44
2018-06-25T03:30:06.009Z,81.29
2018-06-25T03:32:34.141Z,81.58
2018-06-25T03:35:02.280Z,81.85
2018-06-25T03:37:30.348Z,82.03
2018-06-25T03:39:58.486Z,81.56
2018-06-25T03:42:26.620Z,81.08
2018-06-25T03:44:54.805Z,81.72
2018-06-25T03:47:22.859Z,82.12
2018-06-25T03:49:50.936Z,82.24
2018-06-25T03:52:19.594Z,81.79
2018-06-25T03:54:48.594Z,81.61
2018-06-25T03:57:17.001Z,81.79
2018-06-25T03:59:45.111Z,81.79
2018-06-25T04:02:13.344Z,81.60
2018-06-25T04:04:41.470Z,81.44
2018-06-25T04:07:09.618Z,81.11
2018-06-25T04:09:37.776Z,81.53
2018-06-25T04:12:06.037Z,81.14
2018-06-25T04:14:35.082Z,80.80
2018-06-25T04:17:03.931Z,81.17
2018-06-25T04:19:31.998Z,80.51
2018-06-25T04:22:00.124Z,80.86
2018-06-25T04:24:28.234Z,80.49
2018-06-25T04:26:56.398Z,80.46
2018-06-25T04:29:24.580Z,80.79
2018-06-25T04:31:52.736Z,80.74
2018-06-25T04:34:22.442Z,79.89
2018-06-25T04:36:51.120Z,79.49
2018-06-25T04:39:19.215Z,80.39
2018-06-25T04:41:47.307Z,80.52
2018-06-25T04:44:15.358Z,80.31
2018-06-25T04:46:43.538Z,80.66
2018-06-25T04:49:11.615Z,79.35
2018-06-25T04:51:39.753Z,79.89
2018-06-25T04:54:07.882Z,79.05
2018-06-25T04:56:36.074Z,79.29
2018-06-25T04:59:04.255Z,79.23
2018-06-25T05:01:32.437Z,78.50
2018-06-25T05:04:00.647Z,79.33
2018-06-25T05:06:28.695Z,78.33
2018-06-25T05:08:56.849Z,77.77
2018-06-25T05:11:25.035Z,78.26
2018-06-25T05:13:53.540Z,78.22
2018-06-25T05:16:22.339Z,78.40
2018-06-25T05:18:50.531Z,77.20
2018-06-25T05:21:18.682Z,78.11
2018-06-25T05:23:46.807Z,76.26
2018-06-25T05:26:14.948Z,76.47
2018-06-25T05:28:43.080Z,78.10
2018-06-25T05:31:11.223Z,77.65
2018-06-25T05:33:39.380Z,77.17
2018-06-25T05:36:07.590Z,77.43
2018-06-25T05:38:35.653Z,76.71
2018-06-25T05:41:03.830Z,76.07
2018-06-25T05:43:32.006Z,75.42
2018-06-25T05:46:00.183Z,74.54
2018-06-25T05:48:28.326Z,75.00
2018-06-25T05:50:56.648Z,75.56
2018-06-25T05:53:24.791Z,74.60
2018-06-25T05:55:52.908Z,75.72
2018-06-25T05:58:21.064Z,75.19
2018-06-25T06:00:49.244Z,76.26
2018-06-25T06:03:17.479Z,75.95
2018-06-25T06:05:45.670Z,75.64
2018-06-25T06:08:13.855Z,76.99
2018-06-25T06:10:41.971Z,76.53
2018-06-25T06:13:10.061Z,76.18
2018-06-25T06:15:38.196Z,76.57
2018-06-25T06:18:06.564Z,75.54
2018-06-25T06:20:34.749Z,75.07
2018-06-25T06:23:02.813Z,74.27
2018-06-25T06:25:31.058Z,74.42
2018-06-25T06:27:59.233Z,74.33
2018-06-25T06:30:27.316Z,73.34
2018-06-25T06:32:55.484Z,73.27
2018-06-25T06:35:23.686Z,73.11
2018-06-25T06:37:51.894Z,74.23
2018-06-25T06:40:20.234Z,74.12
2018-06-25T06:42:48.311Z,74.26
2018-06-25T06:45:16.441Z,73.37
2018-06-25T06:47:44.544Z,73.98
2018-06-25T06:50:12.613Z,75.33
2018-06-25T06:52:40.699Z,75.29
2018-06-25T06:55:08.794Z,75.44
2018-06-25T06:57:37.092Z,75.35
2018-06-25T07:00:05.405Z,73.46
2018-06-25T07:02:33.526Z,74.99
2018-06-25T07:05:01.685Z,73.42
2018-06-25T07:07:29.900Z,71.27
2018-06-25T07:09:58.004Z,66.43
2018-06-25T07:12:26.199Z,66.57
2018-06-25T07:14:55.175Z,69.96
2018-06-25T07:17:23.343Z,70.03
2018-06-25T07:19:51.450Z,70.56
2018-06-25T07:22:19.639Z,71.65
2018-06-25T07:24:47.794Z,72.49
2018-06-25T07:27:15.942Z,71.53
2018-06-25T07:29:44.127Z,71.69
2018-06-25T07:32:12.260Z,72.36
2018-06-25T07:34:40.374Z,73.30
2018-06-25T07:37:08.631Z,73.80
2018-06-25T07:39:36.968Z,72.15
2018-06-25T07:42:05.113Z,73.42
2018-06-25T07:44:33.236Z,72.42
2018-06-25T07:47:01.372Z,72.56
2018-06-25T07:49:29.522Z,72.17
2018-06-25T07:51:57.669Z,70.35
2018-06-25T07:54:26.765Z,70.75
2018-06-25T07:56:54.958Z,71.19
2018-06-25T07:59:23.129Z,70.78
2018-06-25T08:01:51.330Z,71.54
2018-06-25T08:04:19.504Z,71.16
2018-06-25T08:06:47.675Z,71.44
2018-06-25T08:09:15.843Z,71.10
2018-06-25T08:11:44.003Z,71.61
2018-06-25T08:14:12.111Z,71.80
2018-06-25T08:16:40.386Z,71.22
2018-06-25T08:19:08.715Z,68.66
2018-06-25T08:21:37.180Z,65.37
2018-06-25T08:24:05.481Z,66.73
2018-06-25T08:26:34.289Z,66.33
2018-06-25T08:29:02.498Z,66.46
2018-06-25T08:31:30.680Z,64.20
2018-06-25T08:33:58.875Z,62.87
2018-06-25T08:36:27.133Z,63.56
2018-06-25T08:38:55.426Z,62.89
2018-06-25T08:41:23.672Z,61.84
2018-06-25T08:43:51.885Z,62.65
2018-06-25T08:46:20.234Z,61.11
2018-06-25T08:48:48.429Z,61.99
2018-06-25T08:51:16.607Z,63.01
2018-06-25T08:53:44.755Z,62.77
2018-06-25T08:56:12.897Z,60.94
2018-06-25T08:58:41.100Z,62.26
2018-06-25T09:01:09.262Z,60.66
2018-06-25T09:03:37.439Z,60.85
2018-06-25T09:06:05.646Z,61.20
2018-06-25T09:08:33.945Z,63.20
2018-06-25T09:11:02.117Z,61.40
2018-06-25T09:13:30.216Z,60.21
2018-06-25T09:15:58.351Z,59.24
2018-06-25T09:18:26.524Z,57.48
2018-06-25T09:20:54.650Z,52.53
2018-06-25T09:23:22.793Z,54.15
2018-06-25T09:25:50.866Z,56.30
2018-06-25T09:28:18.988Z,54.83
2018-06-25T09:30:47.106Z,56.45
2018-06-25T09:33:15.928Z,55.45
2018-06-25T09:35:44.205Z,54.49
2018-06-25T09:38:12.481Z,54.21
2018-06-25T09:40:40.731Z,54.21
2018-06-25T09:43:09.490Z,46.27
2018-06-25T09:45:37.658Z,38.78
2018-06-25T09:48:06.190Z,46.31
2018-06-25T09:50:34.953Z,48.49
2018-06-25T09:53:03.021Z,49.95
2018-06-25T09:55:31.271Z,48.32
2018-06-25T09:57:59.609Z,48.98
2018-06-25T10:00:33.903Z,32.58
2018-06-25T10:03:02.046Z,30.95
2018-06-25T10:05:30.257Z,37.31
2018-06-25T10:07:58.442Z,41.58
2018-06-25T10:10:26.615Z,37.87
2018-06-25T10:12:55.090Z,32.97
2018-06-25T10:15:23.263Z,40.34
2018-06-25T10:17:51.445Z,30.64
2018-06-25T10:20:19.655Z,35.08
2018-06-25T10:22:47.856Z,31.94
2018-06-25T10:25:16.026Z,31.90
2018-06-25T10:27:44.250Z,26.22
2018-06-25T10:30:12.473Z,27.96
2018-06-25T10:32:40.638Z,29.99
2018-06-25T10:35:08.864Z,24.55
2018-06-25T10:37:36.989Z,24.24
2018-06-25T10:40:05.182Z,24.74
2018-06-25T10:42:33.481Z,26.33
2018-06-25T10:45:01.632Z,23.84
2018-06-25T10:47:29.952Z,21.82
2018-06-25T10:49:58.149Z,23.08
2018-06-25T10:52:26.463Z,23.55
2018-06-25T10:54:54.663Z,20.97
2018-06-25T10:57:22.908Z,21.29
2018-06-25T10:59:51.195Z,20.83
2018-06-25T11:02:19.189Z,21.60
2018-06-25T11:04:47.312Z,21.25
2018-06-25T11:07:15.564Z,19.19
2018-06-25T11:09:43.701Z,19.99
2018-06-25T11:12:11.939Z,19.94
2018-06-25T11:14:40.091Z,20.57
2018-06-25T11:17:08.909Z,22.14
2018-06-25T11:19:37.089Z,20.16
2018-06-25T11:22:05.273Z,18.61
2018-06-25T11:24:33.565Z,17.28
2018-06-25T11:27:01.962Z,19.20
2018-06-25T11:29:30.047Z,17.47
2018-06-25T11:31:58.349Z,20.27
2018-06-25T11:34:26.555Z,20.32
2018-06-25T11:36:54.708Z,20.19
2018-06-25T11:39:23.089Z,18.74
2018-06-25T11:41:51.324Z,18.12
2018-06-25T11:44:19.497Z,17.60
2018-06-25T11:46:47.807Z,18.84
2018-06-25T11:49:16.014Z,17.17
2018-06-25T11:51:44.180Z,16.29
2018-06-25T11:54:12.303Z,18.52
2018-06-25T11:56:40.546Z,19.25
2018-06-25T11:59:08.716Z,17.83
2018-06-25T12:01:36.884Z,17.59
2018-06-25T12:04:05.077Z,19.18
2018-06-25T12:06:33.213Z,18.51
2018-06-25T12:09:01.929Z,17.69
2018-06-25T12:11:30.129Z,16.63
2018-06-25T12:13:58.288Z,16.87
2018-06-25T12:16:26.534Z,16.25
2018-06-25T12:18:54.844Z,16.43
2018-06-25T12:21:22.981Z,14.99
2018-06-25T12:23:51.130Z,17.46
2018-06-25T12:26:19.192Z,15.64
2018-06-25T12:28:47.326Z,16.14
2018-06-25T12:31:15.527Z,16.46
2018-06-25T12:33:43.696Z,15.63
2018-06-25T12:36:12.154Z,16.23
2018-06-25T12:38:40.229Z,16.01
2018-06-25T12:41:09.088Z,16.89
2018-06-25T12:43:37.386Z,17.03
2018-06-25T12:46:05.514Z,15.71
2018-06-25T12:48:33.647Z,16.94
2018-06-25T12:51:01.845Z,13.96
2018-06-25T12:53:29.943Z,14.12
2018-06-25T12:55:58.596Z,14.19
2018-06-25T12:58:26.721Z,14.46
2018-06-25T13:00:54.866Z,15.03
2018-06-25T13:03:23.030Z,16.18
2018-06-25T13:05:51.129Z,14.71
2018-06-25T13:08:19.247Z,16.28
2018-06-25T13:10:48.193Z,15.79
2018-06-25T13:13:16.253Z,14.90
2018-06-25T13:15:44.357Z,16.94
2018-06-25T13:18:12.569Z,15.54
2018-06-25T13:20:40.719Z,15.70
2018-06-25T13:23:08.855Z,15.18
2018-06-25T13:25:37.029Z,16.59
2018-06-25T13:28:05.503Z,14.79
2018-06-25T13:30:33.770Z,15.14
2018-06-25T13:33:01.990Z,15.47
2018-06-25T13:35:30.142Z,15.52
2018-06-25T13:37:58.355Z,15.80
2018-06-25T13:40:26.512Z,17.15
2018-06-25T13:42:54.826Z,17.85
2018-06-25T13:45:23.102Z,18.78
2018-06-25T13:47:51.222Z,17.04
2018-06-25T13:50:19.467Z,18.17
2018-06-25T13:52:47.719Z,19.40
2018-06-25T13:55:15.936Z,19.25
2018-06-25T13:57:44.737Z,19.92
2018-06-25T14:00:12.906Z,22.36
2018-06-25T14:02:41.098Z,22.03
2018-06-25T14:05:09.342Z,23.85
2018-06-25T14:07:37.549Z,22.49
2018-06-25T14:10:06.365Z,23.91
2018-06-25T14:12:35.138Z,22.12
2018-06-25T14:15:03.767Z,22.50
2018-06-25T14:17:32.043Z,23.32
2018-06-25T14:20:00.241Z,25.10
2018-06-25T14:22:28.499Z,25.43
2018-06-25T14:24:59.288Z,26.54
2018-06-25T14:27:32.559Z,25.54
2018-06-25T14:30:01.017Z,27.98
2018-06-25T14:32:34.127Z,25.22
2018-06-25T14:35:08.146Z,26.91
2018-06-25T14:37:36.489Z,27.57
2018-06-25T14:40:04.721Z,25.96
2018-06-25T14:42:33.071Z,30.20
2018-06-25T14:45:01.311Z,28.11
2018-06-25T14:47:30.206Z,30.07
2018-06-25T14:49:58.468Z,27.09
2018-06-25T14:52:26.738Z,29.89
2018-06-25T14:54:54.941Z,32.85
2018-06-25T14:57:23.306Z,28.90
2018-06-25T14:59:51.490Z,31.96
2018-06-25T15:02:19.641Z,34.46
2018-06-25T15:04:47.927Z,34.11
2018-06-25T15:07:16.115Z,34.86
2018-06-25T15:09:44.279Z,32.37
2018-06-25T15:12:12.438Z,34.08
2018-06-25T15:14:41.879Z,36.39
2018-06-25T15:17:10.180Z,35.08
2018-06-25T15:19:38.628Z,37.74
2018-06-25T15:22:06.843Z,37.79
2018-06-25T15:24:35.118Z,38.19
2018-06-25T15:27:03.893Z,38.49
2018-06-25T15:29:32.802Z,40.51
2018-06-25T15:32:01.061Z,40.16
2018-06-25T15:34:29.272Z,41.09
2018-06-25T15:36:57.467Z,40.84
2018-06-25T15:39:25.931Z,41.57
2018-06-25T15:41:54.133Z,42.24
2018-06-25T15:44:22.342Z,40.84
2018-06-25T15:46:50.579Z,40.01
2018-06-25T15:49:18.683Z,41.61
2018-06-25T15:51:46.954Z,41.57
2018-06-25T15:54:15.245Z,44.63
2018-06-25T15:56:43.387Z,40.80
2018-06-25T15:59:11.657Z,42.49
2018-06-25T16:01:40.674Z,40.68
2018-06-25T16:04:08.779Z,42.67
2018-06-25T16:06:37.037Z,42.71
2018-06-25T16:09:06.571Z,43.84
2018-06-25T16:11:34.824Z,43.33
2018-06-25T16:14:03.339Z,44.42
2018-06-25T16:16:31.521Z,44.38
2018-06-25T16:18:59.779Z,44.82
2018-06-25T16:21:27.967Z,44.83
2018-06-25T16:23:56.059Z,45.31
2018-06-25T16:26:24.161Z,45.86
2018-06-25T16:28:52.413Z,46.04
2018-06-25T16:31:20.510Z,45.67
2018-06-25T16:33:48.611Z,45.13
2018-06-25T16:36:16.730Z,45.19
2018-06-25T16:38:44.875Z,45.21
2018-06-25T16:41:13.146Z,46.06
2018-06-25T16:43:41.338Z,46.83
2018-06-25T16:46:09.551Z,46.07
2018-06-25T16:48:37.786Z,45.61
2018-06-25T16:51:06.078Z,46.67
2018-06-25T16:53:34.255Z,47.80
2018-06-25T16:56:02.693Z,47.92
2018-06-25T16:58:31.063Z,47.75
2018-06-25T17:00:59.179Z,47.86
2018-06-25T17:03:28.101Z,48.38
2018-06-25T17:05:56.267Z,48.05
2018-06-25T17:08:24.360Z,48.28
2018-06-25T17:10:52.616Z,47.23
2018-06-25T17:13:21.261Z,48.06
2018-06-25T17:15:49.873Z,48.29
2018-06-25T17:18:18.254Z,47.74
2018-06-25T17:20:46.577Z,48.39
2018-06-25T17:23:14.775Z,49.10
2018-06-25T17:25:43.673Z,48.48
2018-06-25T17:28:11.903Z,48.69
2018-06-25T17:30:40.238Z,49.26
2018-06-25T17:33:08.422Z,50.46
2018-06-25T17:35:36.554Z,50.30
2018-06-25T17:38:04.741Z,51.94
2018-06-25T17:40:32.819Z,52.39
2018-06-25T17:43:00.971Z,52.72
2018-06-25T17:45:29.114Z,52.26
2018-06-25T17:47:57.610Z,54.05
2018-06-25T17:50:25.798Z,54.08
2018-06-25T17:52:54.085Z,55.12
2018-06-25T17:55:22.254Z,55.03
2018-06-25T17:57:50.557Z,55.24
2018-06-25T18:00:18.831Z,55.10
2018-06-25T18:02:47.017Z,55.43
2018-06-25T18:05:15.261Z,55.92
2018-06-25T18:07:44.384Z,56.53
2018-06-25T18:10:12.530Z,55.77
2018-06-25T18:12:40.622Z,55.75
2018-06-25T18:15:08.752Z,55.84
2018-06-25T18:17:37.197Z,56.01
2018-06-25T18:20:05.819Z,56.97
2018-06-25T18:22:34.114Z,56.78
2018-06-25T18:25:02.261Z,57.28
2018-06-25T18:27:30.589Z,56.80
2018-06-25T18:29:58.704Z,56.38
2018-06-25T18:32:26.857Z,57.40
2018-06-25T18:34:55.039Z,56.54
2018-06-25T18:37:23.255Z,57.16
2018-06-25T18:39:51.504Z,58.07
2018-06-25T18:42:19.717Z,58.76
2018-06-25T18:44:47.903Z,58.95
2018-06-25T18:47:16.051Z,59.08
2018-06-25T18:49:44.191Z,60.01
2018-06-25T18:52:12.467Z,59.17
2018-06-25T18:54:40.638Z,61.11
2018-06-25T18:57:08.850Z,60.76
2018-06-25T18:59:37.073Z,61.17
2018-06-25T19:02:05.288Z,61.73
2018-06-25T19:04:33.666Z,62.44
2018-06-25T19:07:01.841Z,63.03
2018-06-25T19:09:29.977Z,63.16
2018-06-25T19:11:58.298Z,63.33
2018-06-25T19:14:26.510Z,63.72
2018-06-25T19:16:54.652Z,64.04
2018-06-25T19:19:22.857Z,63.56
2018-06-25T19:21:51.041Z,64.22
2018-06-25T19:24:19.240Z,64.13
2018-06-25T19:26:47.441Z,65.11
2018-06-25T19:29:15.690Z,65.78
2018-06-25T19:31:44.021Z,66.56
2018-06-25T19:34:12.313Z,65.30
2018-06-25T19:36:40.495Z,66.00
2018-06-25T19:39:11.258Z,66.29
2018-06-25T19:41:39.517Z,66.97
2018-06-25T19:44:08.264Z,67.24
2018-06-25T19:46:36.430Z,68.99
2018-06-25T19:49:04.809Z,68.75
2018-06-25T19:51:33.029Z,69.49
2018-06-25T19:54:01.275Z,70.51
2018-06-25T19:56:29.505Z,70.65
2018-06-25T19:58:57.606Z,71.90
2018-06-25T20:01:25.789Z,72.17
2018-06-25T20:03:53.997Z,72.99
2018-06-25T20:06:22.051Z,74.19
2018-06-25T20:08:50.095Z,74.58
2018-06-25T20:11:18.241Z,75.53
2018-06-25T20:13:46.321Z,75.33
2018-06-25T20:16:14.502Z,75.53
2018-06-25T20:18:42.619Z,76.17
2018-06-25T20:21:10.667Z,75.12
2018-06-25T20:23:38.799Z,76.14
2018-06-25T20:26:06.930Z,77.21
2018-06-25T20:28:34.976Z,76.42
2018-06-25T20:31:03.128Z,77.67
2018-06-25T20:33:31.273Z,77.16
2018-06-25T20:35:59.500Z,77.03
2018-06-25T20:38:27.666Z,77.92
2018-06-25T20:40:55.801Z,77.83
2018-06-25T20:43:23.955Z,77.65
2018-06-25T20:45:52.051Z,77.62
2018-06-25T20:48:20.167Z,78.71
2018-06-25T20:50:48.357Z,79.36
2018-06-25T20:53:16.583Z,79.56
2018-06-25T20:55:44.667Z,78.90
2018-06-25T20:58:12.816Z,78.08
2018-06-25T21:00:40.896Z,79.44
2018-06-25T21:03:09.085Z,79.77
2018-06-25T21:05:37.208Z,80.82
2018-06-25T21:08:05.569Z,80.32
2018-06-25T21:10:33.655Z,80.70
2018-06-25T21:13:01.747Z,81.01
2018-06-25T21:15:29.796Z,80.65
2018-06-25T21:17:57.874Z,80.23
2018-06-25T21:20:26.055Z,81.18
2018-06-25T21:22:54.194Z,80.56
2018-06-25T21:25:22.436Z,80.91
2018-06-25T21:27:50.637Z,81.08
2018-06-25T21:30:19.494Z,82.16
2018-06-25T21:32:47.657Z,81.96
2018-06-25T21:35:15.765Z,82.01
2018-06-25T21:37:43.929Z,81.43
2018-06-25T21:40:11.989Z,81.19
2018-06-25T21:42:40.199Z,81.57
2018-06-25T21:45:08.346Z,82.15
2018-06-25T21:47:36.545Z,81.49
2018-06-25T21:50:04.787Z,81.95
2018-06-25T21:52:32.979Z,82.12
2018-06-25T21:55:01.089Z,82.69
2018-06-25T21:57:29.201Z,81.29
2018-06-25T21:59:57.625Z,82.31
2018-06-25T22:02:25.881Z,82.30
2018-06-25T22:04:54.020Z,82.40
2018-06-25T22:07:22.185Z,83.05
2018-06-25T22:09:50.242Z,83.03
2018-06-25T22:12:18.472Z,83.04
2018-06-25T22:14:46.547Z,82.84
2018-06-25T22:17:14.628Z,83.36
2018-06-25T22:19:42.791Z,82.98
2018-06-25T22:22:10.942Z,83.20
2018-06-25T22:24:38.987Z,83.02
2018-06-25T22:27:07.079Z,83.09
2018-06-25T22:29:35.179Z,83.87
2018-06-25T22:32:03.329Z,83.48
2018-06-25T22:34:31.398Z,83.44
2018-06-25T22:36:59.527Z,83.24
2018-06-25T22:39:27.641Z,84.06
2018-06-25T22:41:56.019Z,84.33
2018-06-25T22:44:24.160Z,84.08
2018-06-25T22:46:52.287Z,83.56
2018-06-25T22:49:20.420Z,84.21
2018-06-25T22:51:48.493Z,84.04
2018-06-25T22:54:16.620Z,84.31
2018-06-25T22:56:44.714Z,84.29
2018-06-25T22:59:19.755Z,83.90
2018-06-25T23:01:47.917Z,83.53
2018-06-25T23:04:16.028Z,84.34
2018-06-25T23:06:44.194Z,84.22
2018-06-25T23:09:12.542Z,84.08
2018-06-25T23:11:40.755Z,84.00
2018-06-25T23:14:08.855Z,83.33
2018-06-25T23:16:36.991Z,83.46
2018-06-25T23:19:05.145Z,84.08
2018-06-25T23:21:33.314Z,83.23
2018-06-25T23:24:01.548Z,84.25
2018-06-25T23:26:29.611Z,83.59
2018-06-25T23:28:57.722Z,83.75
2018-06-25T23:31:26.026Z,84.09
2018-06-25T23:33:54.452Z,83.89
2018-06-25T23:36:22.653Z,82.77
2018-06-25T23:38:50.768Z,83.11
2018-06-25T23:41:18.873Z,83.64
2018-06-25T23:43:47.020Z,83.93
2018-06-25T23:46:15.153Z,83.54
2018-06-25T23:48:43.342Z,83.99
2018-06-25T23:51:11.910Z,83.53
2018-06-25T23:53:40.755Z,82.59
2018-06-25T23:56:08.774Z,83.62
2018-06-25T23:58:36.790Z,83.36
